Judi M. — WCX8376 — position and weather

sailwx.info

Track history (hours):
 
Tides and Currents Weather Stations Pressure Air Temp Water Temp Dewpoint Dewpoint Depression Visibility Wind Speed Wind Dir Waves Ship Positions

Judi M.

Owner: MANKE TUG & BARGE CO INC, SHELTON, WA. More information available from US FCC via Universal Licensing System and Coast Guard Vessel Documentation Center.

Last reported at 2017-Jan-20 11:32 UTC. Time now 2017-Jan-20 20:14 UTC.
Position N 48°04' W 122°38'.

Length 29 m; draft 4 m.

Type: Tow > 200 m length. MMSI: 366740920.

Date/timePositionNaut miles runAvg speedWind from/ knotsBaromVisibWave heightAir tempDewpointWater temp
2017-Jan-20 11:32N 48°04' W 122°38'8 8.6
2017-Jan-20 10:33N 47°57' W 122°32'8 8.0
2017-Jan-20 09:33N 47°50' W 122°27'8 8.3
2017-Jan-20 08:34N 47°41' W 122°27'7 7.0
2017-Jan-20 07:33N 47°35' W 122°22'1 0.8
2017-Jan-20 06:33N 47°34' W 122°22'  
2017-Jan-16 08:33N 47°34' W 122°22'1 1.4
2017-Jan-16 07:33N 47°36' W 122°22'5 4.8
2017-Jan-16 06:33N 47°39' W 122°28'5 5.2
2017-Jan-16 05:33N 47°44' W 122°27'5 5.2
2017-Jan-16 04:33N 47°49' W 122°28'5 5.3
2017-Jan-16 03:33N 47°54' W 122°30'6 5.7
2017-Jan-16 02:32N 47°58' W 122°36'1 0.1
2017-Jan-15 08:33N 47°58' W 122°34'7 7.4
2017-Jan-15 07:34N 47°52' W 122°28'8 8.1
2017-Jan-15 06:33N 47°44' W 122°26'7 7.1
2017-Jan-15 05:33N 47°37' W 122°24'3 3.3
2017-Jan-15 04:33N 47°34' W 122°22'  
Track history (hours):
 
Tides and Currents Weather Stations Pressure Air Temp Water Temp Dewpoint Dewpoint Depression Visibility Wind Speed Wind Dir Waves Ship Positions

Judi M.

Owner: MANKE TUG & BARGE CO INC, SHELTON, WA. More information available from US FCC via Universal Licensing System and Coast Guard Vessel Documentation Center.

Last reported at 2017-Jan-20 11:32 UTC. Time now 2017-Jan-20 20:14 UTC.
Position N 48°04' W 122°38'.

Length 29 m; draft 4 m.

Type: Tow > 200 m length. MMSI: 366740920.

Date/timePositionNaut miles runAvg speedWind from/ knotsBaromVisibWave heightAir tempDewpointWater temp
2017-Jan-20 11:32N 48°04' W 122°38'8 8.6
2017-Jan-20 10:33N 47°57' W 122°32'8 8.0
2017-Jan-20 09:33N 47°50' W 122°27'8 8.3
2017-Jan-20 08:34N 47°41' W 122°27'7 7.0
2017-Jan-20 07:33N 47°35' W 122°22'1 0.8
2017-Jan-20 06:33N 47°34' W 122°22'  
2017-Jan-16 08:33N 47°34' W 122°22'1 1.4
2017-Jan-16 07:33N 47°36' W 122°22'5 4.8
2017-Jan-16 06:33N 47°39' W 122°28'5 5.2
2017-Jan-16 05:33N 47°44' W 122°27'5 5.2
2017-Jan-16 04:33N 47°49' W 122°28'5 5.3
2017-Jan-16 03:33N 47°54' W 122°30'6 5.7
2017-Jan-16 02:32N 47°58' W 122°36'1 0.1
2017-Jan-15 08:33N 47°58' W 122°34'7 7.4
2017-Jan-15 07:34N 47°52' W 122°28'8 8.1
2017-Jan-15 06:33N 47°44' W 122°26'7 7.1
2017-Jan-15 05:33N 47°37' W 122°24'3 3.3
2017-Jan-15 04:33N 47°34' W 122°22'  

Dump ship's entire track history